sensor_id;sensor_type;location;lat;lon;timestamp;P1;durP1;ratioP1;P2;durP2;ratioP2
72920;SDS011;61064;51.654;5.476;2024-01-30T00:00:21;10.15;;;4.95;;
72920;SDS011;61064;51.654;5.476;2024-01-30T00:02:47;11.43;;;5.53;;
72920;SDS011;61064;51.654;5.476;2024-01-30T00:05:12;12.63;;;5.33;;
72920;SDS011;61064;51.654;5.476;2024-01-30T00:07:38;11.88;;;5.30;;
72920;SDS011;61064;51.654;5.476;2024-01-30T00:10:03;12.13;;;5.40;;
72920;SDS011;61064;51.654;5.476;2024-01-30T00:12:31;10.00;;;5.22;;
72920;SDS011;61064;51.654;5.476;2024-01-30T00:14:57;11.80;;;5.13;;
72920;SDS011;61064;51.654;5.476;2024-01-30T00:17:23;13.70;;;5.95;;
72920;SDS011;61064;51.654;5.476;2024-01-30T00:19:50;11.20;;;5.32;;
72920;SDS011;61064;51.654;5.476;2024-01-30T00:22:15;13.27;;;5.30;;
72920;SDS011;61064;51.654;5.476;2024-01-30T00:24:41;12.02;;;5.28;;
72920;SDS011;61064;51.654;5.476;2024-01-30T00:27:07;11.17;;;5.67;;
72920;SDS011;61064;51.654;5.476;2024-01-30T00:29:33;11.40;;;5.70;;
72920;SDS011;61064;51.654;5.476;2024-01-30T00:31:59;10.50;;;4.85;;
72920;SDS011;61064;51.654;5.476;2024-01-30T00:34:25;13.23;;;5.53;;
72920;SDS011;61064;51.654;5.476;2024-01-30T00:36:50;12.07;;;5.40;;
72920;SDS011;61064;51.654;5.476;2024-01-30T00:39:15;11.93;;;5.07;;
72920;SDS011;61064;51.654;5.476;2024-01-30T00:41:44;10.55;;;5.30;;
72920;SDS011;61064;51.654;5.476;2024-01-30T00:44:09;10.53;;;5.13;;
72920;SDS011;61064;51.654;5.476;2024-01-30T00:46:35;11.07;;;5.13;;
72920;SDS011;61064;51.654;5.476;2024-01-30T00:49:00;11.77;;;5.83;;
72920;SDS011;61064;51.654;5.476;2024-01-30T00:51:25;11.93;;;5.33;;
72920;SDS011;61064;51.654;5.476;2024-01-30T00:53:51;10.27;;;5.20;;
72920;SDS011;61064;51.654;5.476;2024-01-30T00:56:16;9.97;;;4.70;;
72920;SDS011;61064;51.654;5.476;2024-01-30T00:58:43;12.23;;;5.60;;
72920;SDS011;61064;51.654;5.476;2024-01-30T01:01:08;13.50;;;5.73;;
72920;SDS011;61064;51.654;5.476;2024-01-30T01:03:34;12.47;;;5.40;;
72920;SDS011;61064;51.654;5.476;2024-01-30T01:05:59;11.33;;;5.30;;
72920;SDS011;61064;51.654;5.476;2024-01-30T01:08:25;12.55;;;5.38;;
72920;SDS011;61064;51.654;5.476;2024-01-30T01:10:50;12.30;;;5.47;;
72920;SDS011;61064;51.654;5.476;2024-01-30T01:13:16;11.53;;;5.33;;
72920;SDS011;61064;51.654;5.476;2024-01-30T01:15:41;9.97;;;4.67;;
72920;SDS011;61064;51.654;5.476;2024-01-30T01:18:06;11.60;;;5.77;;
72920;SDS011;61064;51.654;5.476;2024-01-30T01:20:32;12.50;;;5.40;;
72920;SDS011;61064;51.654;5.476;2024-01-30T01:22:57;12.68;;;5.40;;
72920;SDS011;61064;51.654;5.476;2024-01-30T01:25:22;11.17;;;5.13;;
72920;SDS011;61064;51.654;5.476;2024-01-30T01:27:48;12.07;;;5.27;;
72920;SDS011;61064;51.654;5.476;2024-01-30T01:30:16;11.55;;;5.57;;
72920;SDS011;61064;51.654;5.476;2024-01-30T01:32:49;9.17;;;4.87;;
72920;SDS011;61064;51.654;5.476;2024-01-30T01:35:22;11.50;;;5.10;;
72920;SDS011;61064;51.654;5.476;2024-01-30T01:37:51;10.77;;;5.55;;
72920;SDS011;61064;51.654;5.476;2024-01-30T01:40:26;11.40;;;5.50;;
72920;SDS011;61064;51.654;5.476;2024-01-30T01:42:53;11.43;;;5.43;;
72920;SDS011;61064;51.654;5.476;2024-01-30T01:45:19;14.07;;;5.70;;
72920;SDS011;61064;51.654;5.476;2024-01-30T01:47:46;11.27;;;5.30;;
72920;SDS011;61064;51.654;5.476;2024-01-30T01:50:15;14.77;;;5.63;;
72920;SDS011;61064;51.654;5.476;2024-01-30T01:52:47;13.35;;;5.53;;
72920;SDS011;61064;51.654;5.476;2024-01-30T01:55:14;10.68;;;5.00;;
72920;SDS011;61064;51.654;5.476;2024-01-30T01:57:46;12.73;;;6.13;;
72920;SDS011;61064;51.654;5.476;2024-01-30T02:00:14;13.05;;;5.68;;
72920;SDS011;61064;51.654;5.476;2024-01-30T02:02:41;10.00;;;5.20;;
72920;SDS011;61064;51.654;5.476;2024-01-30T02:05:10;9.80;;;5.05;;
72920;SDS011;61064;51.654;5.476;2024-01-30T02:07:36;11.52;;;5.47;;
72920;SDS011;61064;51.654;5.476;2024-01-30T02:10:01;11.23;;;5.00;;
72920;SDS011;61064;51.654;5.476;2024-01-30T02:12:28;12.38;;;5.93;;
72920;SDS011;61064;51.654;5.476;2024-01-30T02:14:54;10.75;;;5.20;;
72920;SDS011;61064;51.654;5.476;2024-01-30T02:17:20;10.57;;;5.47;;
72920;SDS011;61064;51.654;5.476;2024-01-30T02:19:46;12.00;;;5.65;;
72920;SDS011;61064;51.654;5.476;2024-01-30T02:22:11;12.40;;;5.37;;
72920;SDS011;61064;51.654;5.476;2024-01-30T02:24:38;13.65;;;5.80;;
72920;SDS011;61064;51.654;5.476;2024-01-30T02:27:12;10.80;;;5.00;;
72920;SDS011;61064;51.654;5.476;2024-01-30T02:29:47;12.90;;;5.93;;
72920;SDS011;61064;51.654;5.476;2024-01-30T02:32:12;12.33;;;5.50;;
72920;SDS011;61064;51.654;5.476;2024-01-30T02:34:37;12.03;;;5.43;;
72920;SDS011;61064;51.654;5.476;2024-01-30T02:37:03;10.77;;;5.17;;
72920;SDS011;61064;51.654;5.476;2024-01-30T02:39:29;12.83;;;5.30;;
72920;SDS011;61064;51.654;5.476;2024-01-30T02:41:57;10.80;;;5.18;;
72920;SDS011;61064;51.654;5.476;2024-01-30T02:44:22;12.63;;;5.50;;
72920;SDS011;61064;51.654;5.476;2024-01-30T02:46:47;12.43;;;5.07;;
72920;SDS011;61064;51.654;5.476;2024-01-30T02:49:13;11.53;;;5.47;;
72920;SDS011;61064;51.654;5.476;2024-01-30T02:51:38;13.87;;;5.40;;
72920;SDS011;61064;51.654;5.476;2024-01-30T02:54:03;12.60;;;5.07;;
72920;SDS011;61064;51.654;5.476;2024-01-30T02:56:29;12.38;;;5.28;;
72920;SDS011;61064;51.654;5.476;2024-01-30T02:58:54;12.63;;;5.40;;
72920;SDS011;61064;51.654;5.476;2024-01-30T03:01:19;12.03;;;5.10;;
72920;SDS011;61064;51.654;5.476;2024-01-30T03:03:45;13.67;;;5.40;;
72920;SDS011;61064;51.654;5.476;2024-01-30T03:06:10;14.83;;;6.20;;
72920;SDS011;61064;51.654;5.476;2024-01-30T03:08:35;11.63;;;5.40;;
72920;SDS011;61064;51.654;5.476;2024-01-30T03:11:03;12.37;;;5.53;;
72920;SDS011;61064;51.654;5.476;2024-01-30T03:13:29;10.88;;;5.53;;
72920;SDS011;61064;51.654;5.476;2024-01-30T03:15:54;11.63;;;5.07;;
72920;SDS011;61064;51.654;5.476;2024-01-30T03:18:20;9.63;;;4.87;;
72920;SDS011;61064;51.654;5.476;2024-01-30T03:20:45;13.73;;;5.40;;
72920;SDS011;61064;51.654;5.476;2024-01-30T03:23:11;11.73;;;5.37;;
72920;SDS011;61064;51.654;5.476;2024-01-30T03:25:38;11.25;;;5.30;;
72920;SDS011;61064;51.654;5.476;2024-01-30T03:28:03;13.43;;;5.63;;
72920;SDS011;61064;51.654;5.476;2024-01-30T03:30:29;14.13;;;5.70;;
72920;SDS011;61064;51.654;5.476;2024-01-30T03:32:55;12.93;;;5.80;;
72920;SDS011;61064;51.654;5.476;2024-01-30T03:35:20;10.93;;;5.17;;
72920;SDS011;61064;51.654;5.476;2024-01-30T03:37:46;11.93;;;5.60;;
72920;SDS011;61064;51.654;5.476;2024-01-30T03:40:11;12.10;;;4.88;;
72920;SDS011;61064;51.654;5.476;2024-01-30T03:42:37;10.43;;;5.27;;
72920;SDS011;61064;51.654;5.476;2024-01-30T03:45:04;10.38;;;5.18;;
72920;SDS011;61064;51.654;5.476;2024-01-30T03:47:30;12.65;;;5.40;;
72920;SDS011;61064;51.654;5.476;2024-01-30T03:49:55;11.77;;;4.83;;
72920;SDS011;61064;51.654;5.476;2024-01-30T03:52:21;11.57;;;5.33;;
72920;SDS011;61064;51.654;5.476;2024-01-30T03:54:46;14.20;;;5.40;;
72920;SDS011;61064;51.654;5.476;2024-01-30T03:57:12;11.03;;;5.20;;
72920;SDS011;61064;51.654;5.476;2024-01-30T03:59:37;11.67;;;5.13;;
72920;SDS011;61064;51.654;5.476;2024-01-30T04:02:03;11.98;;;4.97;;
72920;SDS011;61064;51.654;5.476;2024-01-30T04:04:28;11.93;;;5.40;;
72920;SDS011;61064;51.654;5.476;2024-01-30T04:06:54;12.13;;;5.03;;
72920;SDS011;61064;51.654;5.476;2024-01-30T04:09:19;11.50;;;5.23;;
72920;SDS011;61064;51.654;5.476;2024-01-30T04:11:44;11.77;;;5.20;;
72920;SDS011;61064;51.654;5.476;2024-01-30T04:14:10;13.27;;;5.10;;
72920;SDS011;61064;51.654;5.476;2024-01-30T04:16:35;13.53;;;4.90;;
72920;SDS011;61064;51.654;5.476;2024-01-30T04:19:01;10.82;;;5.03;;
72920;SDS011;61064;51.654;5.476;2024-01-30T04:21:26;12.20;;;4.93;;
72920;SDS011;61064;51.654;5.476;2024-01-30T04:23:52;10.97;;;4.70;;
72920;SDS011;61064;51.654;5.476;2024-01-30T04:26:18;12.98;;;5.10;;
72920;SDS011;61064;51.654;5.476;2024-01-30T04:28:44;11.60;;;5.03;;
72920;SDS011;61064;51.654;5.476;2024-01-30T04:31:10;12.45;;;4.72;;
72920;SDS011;61064;51.654;5.476;2024-01-30T04:33:36;11.45;;;5.13;;
72920;SDS011;61064;51.654;5.476;2024-01-30T04:36:04;9.60;;;4.80;;
72920;SDS011;61064;51.654;5.476;2024-01-30T04:38:35;12.02;;;5.05;;
72920;SDS011;61064;51.654;5.476;2024-01-30T04:41:00;11.60;;;4.70;;
72920;SDS011;61064;51.654;5.476;2024-01-30T04:43:25;13.13;;;4.73;;
72920;SDS011;61064;51.654;5.476;2024-01-30T04:45:54;12.77;;;4.30;;
72920;SDS011;61064;51.654;5.476;2024-01-30T04:48:20;11.25;;;4.50;;
72920;SDS011;61064;51.654;5.476;2024-01-30T04:50:45;10.03;;;4.63;;
72920;SDS011;61064;51.654;5.476;2024-01-30T04:53:10;13.80;;;4.57;;
72920;SDS011;61064;51.654;5.476;2024-01-30T04:55:36;9.37;;;4.30;;
72920;SDS011;61064;51.654;5.476;2024-01-30T04:58:01;11.27;;;4.47;;
72920;SDS011;61064;51.654;5.476;2024-01-30T05:00:26;9.77;;;4.38;;
72920;SDS011;61064;51.654;5.476;2024-01-30T05:02:52;11.53;;;4.50;;
72920;SDS011;61064;51.654;5.476;2024-01-30T05:05:17;12.37;;;4.90;;
72920;SDS011;61064;51.654;5.476;2024-01-30T05:07:42;10.70;;;5.03;;
72920;SDS011;61064;51.654;5.476;2024-01-30T05:10:08;13.40;;;4.80;;
72920;SDS011;61064;51.654;5.476;2024-01-30T05:12:34;11.73;;;4.55;;
72920;SDS011;61064;51.654;5.476;2024-01-30T05:14:59;11.10;;;4.40;;
72920;SDS011;61064;51.654;5.476;2024-01-30T05:17:32;10.55;;;4.72;;
72920;SDS011;61064;51.654;5.476;2024-01-30T05:19:58;11.73;;;4.67;;
72920;SDS011;61064;51.654;5.476;2024-01-30T05:22:23;9.45;;;4.10;;
72920;SDS011;61064;51.654;5.476;2024-01-30T05:24:49;10.13;;;3.93;;
72920;SDS011;61064;51.654;5.476;2024-01-30T05:27:14;9.80;;;4.57;;
72920;SDS011;61064;51.654;5.476;2024-01-30T05:29:40;9.47;;;4.20;;
72920;SDS011;61064;51.654;5.476;2024-01-30T05:32:06;9.95;;;4.35;;
72920;SDS011;61064;51.654;5.476;2024-01-30T05:34:31;11.77;;;4.00;;
72920;SDS011;61064;51.654;5.476;2024-01-30T05:36:57;9.23;;;4.32;;
72920;SDS011;61064;51.654;5.476;2024-01-30T05:39:22;9.57;;;4.50;;
72920;SDS011;61064;51.654;5.476;2024-01-30T05:41:48;11.23;;;4.20;;
72920;SDS011;61064;51.654;5.476;2024-01-30T05:44:13;10.07;;;4.30;;
72920;SDS011;61064;51.654;5.476;2024-01-30T05:46:38;10.63;;;4.20;;
72920;SDS011;61064;51.654;5.476;2024-01-30T05:49:04;10.52;;;4.57;;
72920;SDS011;61064;51.654;5.476;2024-01-30T05:51:29;9.10;;;4.17;;
72920;SDS011;61064;51.654;5.476;2024-01-30T05:53:55;10.60;;;4.20;;
72920;SDS011;61064;51.654;5.476;2024-01-30T05:56:20;8.83;;;3.97;;
72920;SDS011;61064;51.654;5.476;2024-01-30T05:58:45;8.43;;;3.93;;
72920;SDS011;61064;51.654;5.476;2024-01-30T06:01:11;9.33;;;4.03;;
72920;SDS011;61064;51.654;5.476;2024-01-30T06:03:36;10.57;;;4.20;;
72920;SDS011;61064;51.654;5.476;2024-01-30T06:06:02;11.10;;;4.67;;
72920;SDS011;61064;51.654;5.476;2024-01-30T06:08:27;11.10;;;4.43;;
72920;SDS011;61064;51.654;5.476;2024-01-30T06:10:53;10.37;;;4.03;;
72920;SDS011;61064;51.654;5.476;2024-01-30T06:13:18;11.07;;;4.30;;
72920;SDS011;61064;51.654;5.476;2024-01-30T06:15:43;10.63;;;4.33;;
72920;SDS011;61064;51.654;5.476;2024-01-30T06:18:09;12.27;;;4.47;;
72920;SDS011;61064;51.654;5.476;2024-01-30T06:20:34;11.53;;;4.80;;
72920;SDS011;61064;51.654;5.476;2024-01-30T06:22:59;10.15;;;3.97;;
72920;SDS011;61064;51.654;5.476;2024-01-30T06:25:25;9.43;;;4.13;;
72920;SDS011;61064;51.654;5.476;2024-01-30T06:27:51;8.65;;;3.95;;
72920;SDS011;61064;51.654;5.476;2024-01-30T06:30:16;9.90;;;4.10;;
72920;SDS011;61064;51.654;5.476;2024-01-30T06:32:42;10.87;;;4.40;;
72920;SDS011;61064;51.654;5.476;2024-01-30T06:35:07;11.90;;;4.23;;
72920;SDS011;61064;51.654;5.476;2024-01-30T06:37:33;9.82;;;4.18;;
72920;SDS011;61064;51.654;5.476;2024-01-30T06:39:58;9.83;;;4.10;;
72920;SDS011;61064;51.654;5.476;2024-01-30T06:42:24;10.27;;;4.03;;
72920;SDS011;61064;51.654;5.476;2024-01-30T06:44:49;8.48;;;3.60;;
72920;SDS011;61064;51.654;5.476;2024-01-30T06:47:14;10.10;;;3.90;;
72920;SDS011;61064;51.654;5.476;2024-01-30T06:49:40;9.73;;;4.10;;
72920;SDS011;61064;51.654;5.476;2024-01-30T06:52:07;10.48;;;4.20;;
72920;SDS011;61064;51.654;5.476;2024-01-30T06:54:33;10.73;;;4.83;;
72920;SDS011;61064;51.654;5.476;2024-01-30T06:56:59;10.15;;;4.10;;
72920;SDS011;61064;51.654;5.476;2024-01-30T06:59:25;10.45;;;4.20;;
72920;SDS011;61064;51.654;5.476;2024-01-30T07:01:50;11.83;;;4.20;;
72920;SDS011;61064;51.654;5.476;2024-01-30T07:04:16;9.83;;;3.87;;
72920;SDS011;61064;51.654;5.476;2024-01-30T07:06:41;10.52;;;3.65;;
72920;SDS011;61064;51.654;5.476;2024-01-30T07:09:07;12.83;;;4.50;;
72920;SDS011;61064;51.654;5.476;2024-01-30T07:11:36;12.13;;;4.47;;
72920;SDS011;61064;51.654;5.476;2024-01-30T07:14:01;10.93;;;4.20;;
72920;SDS011;61064;51.654;5.476;2024-01-30T07:16:29;11.25;;;4.10;;
72920;SDS011;61064;51.654;5.476;2024-01-30T07:18:55;10.43;;;4.23;;
72920;SDS011;61064;51.654;5.476;2024-01-30T07:21:21;11.32;;;4.03;;
72920;SDS011;61064;51.654;5.476;2024-01-30T07:23:52;9.73;;;4.38;;
72920;SDS011;61064;51.654;5.476;2024-01-30T07:26:18;10.13;;;4.13;;
72920;SDS011;61064;51.654;5.476;2024-01-30T07:28:43;9.17;;;4.33;;
72920;SDS011;61064;51.654;5.476;2024-01-30T07:31:09;9.05;;;3.83;;
72920;SDS011;61064;51.654;5.476;2024-01-30T07:33:37;10.30;;;4.13;;
72920;SDS011;61064;51.654;5.476;2024-01-30T07:36:02;10.95;;;4.25;;
72920;SDS011;61064;51.654;5.476;2024-01-30T07:38:28;10.17;;;4.40;;
72920;SDS011;61064;51.654;5.476;2024-01-30T07:40:56;10.88;;;4.13;;
72920;SDS011;61064;51.654;5.476;2024-01-30T07:43:21;10.87;;;4.50;;
72920;SDS011;61064;51.654;5.476;2024-01-30T07:45:47;9.68;;;4.18;;
72920;SDS011;61064;51.654;5.476;2024-01-30T07:48:13;9.53;;;4.17;;
72920;SDS011;61064;51.654;5.476;2024-01-30T07:50:39;10.65;;;4.03;;
72920;SDS011;61064;51.654;5.476;2024-01-30T07:53:04;8.40;;;4.17;;
72920;SDS011;61064;51.654;5.476;2024-01-30T07:55:34;9.50;;;4.40;;
72920;SDS011;61064;51.654;5.476;2024-01-30T07:58:00;12.77;;;4.23;;
72920;SDS011;61064;51.654;5.476;2024-01-30T08:00:25;12.57;;;4.50;;
72920;SDS011;61064;51.654;5.476;2024-01-30T08:02:54;12.60;;;4.30;;
72920;SDS011;61064;51.654;5.476;2024-01-30T08:05:20;10.37;;;3.90;;
72920;SDS011;61064;51.654;5.476;2024-01-30T08:07:47;10.32;;;4.05;;
72920;SDS011;61064;51.654;5.476;2024-01-30T08:10:14;10.23;;;4.20;;
72920;SDS011;61064;51.654;5.476;2024-01-30T08:12:40;9.88;;;4.25;;
72920;SDS011;61064;51.654;5.476;2024-01-30T08:15:05;12.13;;;4.30;;
72920;SDS011;61064;51.654;5.476;2024-01-30T08:17:31;14.35;;;4.35;;
72920;SDS011;61064;51.654;5.476;2024-01-30T08:19:56;11.70;;;4.30;;
72920;SDS011;61064;51.654;5.476;2024-01-30T08:22:22;10.23;;;4.40;;
72920;SDS011;61064;51.654;5.476;2024-01-30T08:24:47;10.83;;;4.53;;
72920;SDS011;61064;51.654;5.476;2024-01-30T08:27:12;9.77;;;4.27;;
72920;SDS011;61064;51.654;5.476;2024-01-30T08:29:38;16.90;;;4.72;;
72920;SDS011;61064;51.654;5.476;2024-01-30T08:32:06;11.53;;;4.53;;
72920;SDS011;61064;51.654;5.476;2024-01-30T08:34:32;10.57;;;4.70;;
72920;SDS011;61064;51.654;5.476;2024-01-30T08:36:57;13.05;;;4.60;;
72920;SDS011;61064;51.654;5.476;2024-01-30T08:39:23;10.77;;;4.20;;
72920;SDS011;61064;51.654;5.476;2024-01-30T08:41:48;9.80;;;4.03;;
72920;SDS011;61064;51.654;5.476;2024-01-30T08:44:14;10.00;;;4.17;;
72920;SDS011;61064;51.654;5.476;2024-01-30T08:46:39;9.87;;;4.13;;
72920;SDS011;61064;51.654;5.476;2024-01-30T08:49:04;11.47;;;5.10;;
72920;SDS011;61064;51.654;5.476;2024-01-30T08:51:30;9.63;;;4.23;;
72920;SDS011;61064;51.654;5.476;2024-01-30T08:53:59;9.60;;;4.07;;
72920;SDS011;61064;51.654;5.476;2024-01-30T08:56:25;10.35;;;4.07;;
72920;SDS011;61064;51.654;5.476;2024-01-30T08:58:50;13.70;;;4.70;;
72920;SDS011;61064;51.654;5.476;2024-01-30T09:01:16;11.07;;;4.50;;
72920;SDS011;61064;51.654;5.476;2024-01-30T09:03:44;10.87;;;4.40;;
72920;SDS011;61064;51.654;5.476;2024-01-30T09:06:11;10.93;;;4.40;;
72920;SDS011;61064;51.654;5.476;2024-01-30T09:08:37;13.45;;;4.57;;
72920;SDS011;61064;51.654;5.476;2024-01-30T09:11:13;11.80;;;4.40;;
72920;SDS011;61064;51.654;5.476;2024-01-30T09:13:39;22.50;;;4.63;;
72920;SDS011;61064;51.654;5.476;2024-01-30T09:16:04;11.57;;;4.63;;
72920;SDS011;61064;51.654;5.476;2024-01-30T09:18:30;10.77;;;4.18;;
72920;SDS011;61064;51.654;5.476;2024-01-30T09:20:56;13.27;;;4.80;;
72920;SDS011;61064;51.654;5.476;2024-01-30T09:23:21;12.05;;;4.43;;
72920;SDS011;61064;51.654;5.476;2024-01-30T09:25:47;11.30;;;4.20;;
72920;SDS011;61064;51.654;5.476;2024-01-30T09:28:12;11.80;;;4.63;;
72920;SDS011;61064;51.654;5.476;2024-01-30T09:30:38;13.70;;;4.40;;
72920;SDS011;61064;51.654;5.476;2024-01-30T09:33:03;13.10;;;4.60;;
72920;SDS011;61064;51.654;5.476;2024-01-30T09:35:29;12.87;;;4.80;;
72920;SDS011;61064;51.654;5.476;2024-01-30T09:37:55;11.70;;;4.60;;
72920;SDS011;61064;51.654;5.476;2024-01-30T09:40:20;11.13;;;4.53;;
72920;SDS011;61064;51.654;5.476;2024-01-30T09:42:49;10.73;;;4.80;;
72920;SDS011;61064;51.654;5.476;2024-01-30T09:45:17;11.00;;;4.63;;
72920;SDS011;61064;51.654;5.476;2024-01-30T09:47:47;12.43;;;4.70;;
72920;SDS011;61064;51.654;5.476;2024-01-30T09:50:13;13.43;;;4.93;;
72920;SDS011;61064;51.654;5.476;2024-01-30T09:52:40;12.40;;;4.60;;
72920;SDS011;61064;51.654;5.476;2024-01-30T09:55:10;10.50;;;3.93;;
72920;SDS011;61064;51.654;5.476;2024-01-30T09:57:36;11.90;;;4.82;;
72920;SDS011;61064;51.654;5.476;2024-01-30T10:00:04;10.75;;;4.35;;
72920;SDS011;61064;51.654;5.476;2024-01-30T10:02:33;9.77;;;3.88;;
72920;SDS011;61064;51.654;5.476;2024-01-30T10:04:59;13.82;;;4.45;;
72920;SDS011;61064;51.654;5.476;2024-01-30T10:07:25;13.67;;;4.30;;
72920;SDS011;61064;51.654;5.476;2024-01-30T10:09:52;10.27;;;4.25;;
72920;SDS011;61064;51.654;5.476;2024-01-30T10:12:18;11.55;;;4.57;;
72920;SDS011;61064;51.654;5.476;2024-01-30T10:14:44;13.40;;;4.50;;
72920;SDS011;61064;51.654;5.476;2024-01-30T10:17:09;10.73;;;4.43;;
72920;SDS011;61064;51.654;5.476;2024-01-30T10:19:37;12.95;;;4.63;;
72920;SDS011;61064;51.654;5.476;2024-01-30T10:22:03;13.32;;;4.70;;
72920;SDS011;61064;51.654;5.476;2024-01-30T10:24:29;13.10;;;5.13;;
72920;SDS011;61064;51.654;5.476;2024-01-30T10:26:55;12.40;;;4.43;;
72920;SDS011;61064;51.654;5.476;2024-01-30T10:29:21;10.80;;;5.00;;
72920;SDS011;61064;51.654;5.476;2024-01-30T10:31:57;11.23;;;4.87;;
72920;SDS011;61064;51.654;5.476;2024-01-30T10:34:26;15.82;;;4.75;;
72920;SDS011;61064;51.654;5.476;2024-01-30T10:36:54;13.38;;;5.10;;
72920;SDS011;61064;51.654;5.476;2024-01-30T10:39:41;13.90;;;4.82;;
72920;SDS011;61064;51.654;5.476;2024-01-30T10:42:11;11.70;;;4.53;;
72920;SDS011;61064;51.654;5.476;2024-01-30T10:47:11;18.42;;;5.20;;
72920;SDS011;61064;51.654;5.476;2024-01-30T10:49:39;12.90;;;5.30;;
72920;SDS011;61064;51.654;5.476;2024-01-30T10:52:07;12.32;;;4.70;;
72920;SDS011;61064;51.654;5.476;2024-01-30T10:54:34;11.10;;;5.17;;
72920;SDS011;61064;51.654;5.476;2024-01-30T10:57:00;13.45;;;4.90;;
72920;SDS011;61064;51.654;5.476;2024-01-30T10:59:28;10.20;;;4.53;;
72920;SDS011;61064;51.654;5.476;2024-01-30T11:01:57;11.40;;;4.45;;
72920;SDS011;61064;51.654;5.476;2024-01-30T11:04:24;11.45;;;4.13;;
72920;SDS011;61064;51.654;5.476;2024-01-30T11:06:50;11.13;;;3.67;;
72920;SDS011;61064;51.654;5.476;2024-01-30T11:09:16;11.50;;;3.50;;
72920;SDS011;61064;51.654;5.476;2024-01-30T11:11:49;10.90;;;4.53;;
72920;SDS011;61064;51.654;5.476;2024-01-30T11:14:25;9.55;;;3.78;;
72920;SDS011;61064;51.654;5.476;2024-01-30T11:16:51;10.70;;;3.75;;
72920;SDS011;61064;51.654;5.476;2024-01-30T11:19:24;9.93;;;3.50;;
72920;SDS011;61064;51.654;5.476;2024-01-30T11:21:51;11.68;;;3.67;;
72920;SDS011;61064;51.654;5.476;2024-01-30T11:24:19;14.38;;;4.00;;
72920;SDS011;61064;51.654;5.476;2024-01-30T11:26:57;10.55;;;3.42;;
72920;SDS011;61064;51.654;5.476;2024-01-30T11:29:29;13.57;;;4.10;;
72920;SDS011;61064;51.654;5.476;2024-01-30T11:31:55;10.27;;;3.90;;
72920;SDS011;61064;51.654;5.476;2024-01-30T11:34:21;8.48;;;3.45;;
72920;SDS011;61064;51.654;5.476;2024-01-30T11:36:57;10.65;;;3.63;;
72920;SDS011;61064;51.654;5.476;2024-01-30T11:39:29;11.68;;;4.07;;
72920;SDS011;61064;51.654;5.476;2024-01-30T11:41:55;9.35;;;3.72;;
72920;SDS011;61064;51.654;5.476;2024-01-30T11:44:24;11.13;;;3.43;;
72920;SDS011;61064;51.654;5.476;2024-01-30T11:46:54;10.20;;;3.83;;
72920;SDS011;61064;51.654;5.476;2024-01-30T11:49:19;14.10;;;3.73;;
72920;SDS011;61064;51.654;5.476;2024-01-30T11:51:45;11.30;;;3.67;;
72920;SDS011;61064;51.654;5.476;2024-01-30T11:54:11;9.82;;;3.42;;
72920;SDS011;61064;51.654;5.476;2024-01-30T11:56:37;11.07;;;3.27;;
72920;SDS011;61064;51.654;5.476;2024-01-30T11:59:03;8.40;;;3.35;;
72920;SDS011;61064;51.654;5.476;2024-01-30T12:01:31;9.70;;;3.33;;
72920;SDS011;61064;51.654;5.476;2024-01-30T12:04:00;10.30;;;3.22;;
72920;SDS011;61064;51.654;5.476;2024-01-30T12:06:36;8.53;;;3.23;;
72920;SDS011;61064;51.654;5.476;2024-01-30T12:09:02;9.30;;;3.17;;
72920;SDS011;61064;51.654;5.476;2024-01-30T12:11:48;10.43;;;3.05;;
72920;SDS011;61064;51.654;5.476;2024-01-30T12:14:18;9.57;;;3.25;;
72920;SDS011;61064;51.654;5.476;2024-01-30T12:16:48;10.88;;;3.90;;
72920;SDS011;61064;51.654;5.476;2024-01-30T12:19:24;11.70;;;3.57;;
72920;SDS011;61064;51.654;5.476;2024-01-30T12:21:53;9.27;;;3.25;;
72920;SDS011;61064;51.654;5.476;2024-01-30T12:24:21;8.45;;;3.00;;
72920;SDS011;61064;51.654;5.476;2024-01-30T12:26:47;9.75;;;2.65;;
72920;SDS011;61064;51.654;5.476;2024-01-30T12:29:12;8.67;;;2.50;;
72920;SDS011;61064;51.654;5.476;2024-01-30T12:31:41;6.22;;;2.28;;
72920;SDS011;61064;51.654;5.476;2024-01-30T12:34:07;6.90;;;2.10;;
72920;SDS011;61064;51.654;5.476;2024-01-30T12:36:33;5.70;;;1.70;;
72920;SDS011;61064;51.654;5.476;2024-01-30T12:38:59;10.23;;;1.90;;
72920;SDS011;61064;51.654;5.476;2024-01-30T12:41:26;6.10;;;1.70;;
72920;SDS011;61064;51.654;5.476;2024-01-30T12:43:58;6.97;;;1.80;;
72920;SDS011;61064;51.654;5.476;2024-01-30T12:46:29;5.68;;;1.50;;
72920;SDS011;61064;51.654;5.476;2024-01-30T12:48:55;5.47;;;1.48;;
72920;SDS011;61064;51.654;5.476;2024-01-30T12:51:20;5.23;;;1.33;;
72920;SDS011;61064;51.654;5.476;2024-01-30T12:53:45;5.87;;;1.50;;
72920;SDS011;61064;51.654;5.476;2024-01-30T12:56:13;7.00;;;1.30;;
72920;SDS011;61064;51.654;5.476;2024-01-30T12:58:39;6.60;;;1.45;;
72920;SDS011;61064;51.654;5.476;2024-01-30T13:01:10;6.03;;;1.43;;
72920;SDS011;61064;51.654;5.476;2024-01-30T13:03:36;4.85;;;1.00;;
72920;SDS011;61064;51.654;5.476;2024-01-30T13:06:02;4.78;;;1.17;;
72920;SDS011;61064;51.654;5.476;2024-01-30T13:08:27;5.13;;;1.20;;
72920;SDS011;61064;51.654;5.476;2024-01-30T13:10:53;4.35;;;1.10;;
72920;SDS011;61064;51.654;5.476;2024-01-30T13:13:21;4.43;;;0.90;;
72920;SDS011;61064;51.654;5.476;2024-01-30T13:15:47;6.13;;;0.85;;
72920;SDS011;61064;51.654;5.476;2024-01-30T13:18:12;4.10;;;0.77;;
72920;SDS011;61064;51.654;5.476;2024-01-30T13:20:38;3.90;;;0.60;;
72920;SDS011;61064;51.654;5.476;2024-01-30T13:23:07;2.13;;;0.40;;
72920;SDS011;61064;51.654;5.476;2024-01-30T13:25:33;7.10;;;0.60;;
72920;SDS011;61064;51.654;5.476;2024-01-30T13:27:58;3.43;;;0.60;;
72920;SDS011;61064;51.654;5.476;2024-01-30T13:30:27;6.13;;;0.63;;
72920;SDS011;61064;51.654;5.476;2024-01-30T13:32:52;1.88;;;0.30;;
72920;SDS011;61064;51.654;5.476;2024-01-30T13:35:19;4.78;;;0.57;;
72920;SDS011;61064;51.654;5.476;2024-01-30T13:37:44;5.80;;;0.60;;
72920;SDS011;61064;51.654;5.476;2024-01-30T13:40:10;3.85;;;0.50;;
72920;SDS011;61064;51.654;5.476;2024-01-30T13:42:35;3.57;;;0.50;;
72920;SDS011;61064;51.654;5.476;2024-01-30T13:45:01;7.20;;;0.80;;
72920;SDS011;61064;51.654;5.476;2024-01-30T13:47:27;4.80;;;0.50;;
72920;SDS011;61064;51.654;5.476;2024-01-30T13:49:52;5.73;;;0.50;;
72920;SDS011;61064;51.654;5.476;2024-01-30T13:52:18;3.83;;;0.60;;
72920;SDS011;61064;51.654;5.476;2024-01-30T13:54:43;5.20;;;0.40;;
72920;SDS011;61064;51.654;5.476;2024-01-30T13:57:09;3.23;;;0.40;;
72920;SDS011;61064;51.654;5.476;2024-01-30T13:59:35;5.85;;;0.50;;
72920;SDS011;61064;51.654;5.476;2024-01-30T14:02:00;7.47;;;0.60;;
72920;SDS011;61064;51.654;5.476;2024-01-30T14:04:28;2.88;;;0.40;;
72920;SDS011;61064;51.654;5.476;2024-01-30T14:06:53;5.87;;;0.60;;
72920;SDS011;61064;51.654;5.476;2024-01-30T14:09:19;4.20;;;0.67;;
72920;SDS011;61064;51.654;5.476;2024-01-30T14:11:46;5.93;;;0.70;;
72920;SDS011;61064;51.654;5.476;2024-01-30T14:14:12;4.10;;;0.70;;
72920;SDS011;61064;51.654;5.476;2024-01-30T14:16:37;5.40;;;0.50;;
72920;SDS011;61064;51.654;5.476;2024-01-30T14:19:03;4.72;;;0.95;;
72920;SDS011;61064;51.654;5.476;2024-01-30T14:21:28;5.60;;;1.50;;
72920;SDS011;61064;51.654;5.476;2024-01-30T14:23:55;8.47;;;1.53;;
72920;SDS011;61064;51.654;5.476;2024-01-30T14:26:23;8.32;;;1.75;;
72920;SDS011;61064;51.654;5.476;2024-01-30T14:28:49;5.57;;;1.50;;
72920;SDS011;61064;51.654;5.476;2024-01-30T14:31:15;8.03;;;1.63;;
72920;SDS011;61064;51.654;5.476;2024-01-30T14:33:46;6.00;;;1.60;;
72920;SDS011;61064;51.654;5.476;2024-01-30T14:36:12;8.65;;;2.05;;